Time;durP1;ratioP1;P1;durP2;ratioP2;P2;SDS_P1;SDS_P2;PMS_P1;PMS_P2;Temp;Humidity;BMP_temperature;BMP_pressure;BME280_temperature;BME280_humidity;BME280_pressure;Samples;Min_cycle;Max_cycle;Signal;HPM_P1;HPM_P2
2022/10/12 00:01:05;;;;;;;;;;;11.90;99.90;;;;;;5086203;28;19960;-71
2022/10/12 00:03:32;;;;;;;;;;;11.90;99.90;;;;;;5086351;28;19920;-71
2022/10/12 00:06:03;;;;;;;;;;;12.00;99.90;;;;;;5096195;28;19962;-72
2022/10/12 00:08:31;;;;;;;;;;;11.90;99.90;;;;;;5105753;28;19920;-72
2022/10/12 00:10:58;;;;;;;;;;;11.90;99.90;;;;;;5106172;28;19920;-71
2022/10/12 00:13:24;;;;;;;;;;;11.80;99.90;;;;;;5106388;28;19920;-71
2022/10/12 00:15:51;;;;;;;;;;;11.80;99.90;;;;;;5106260;28;20258;-71
2022/10/12 00:18:23;;;;;;;;;;;11.80;99.90;;;;;;5105590;28;19955;-72
2022/10/12 00:20:59;;;;;;;;;;;11.80;99.90;;;;;;5106345;28;19920;-71
2022/10/12 00:23:26;;;;;;;;;;;11.80;99.90;;;;;;5106101;28;19920;-71
2022/10/12 00:25:54;;;;;;;;;;;11.80;99.90;;;;;;5106005;28;19920;-71
2022/10/12 00:28:21;;;;;;;;;;;11.80;99.90;;;;;;5105043;28;19935;-72
2022/10/12 00:30:48;;;;;;;;;;;11.80;99.90;;;;;;5106104;28;19920;-72
2022/10/12 00:33:14;;;;;;;;;;;11.70;99.90;;;;;;5105637;28;19927;-72
2022/10/12 00:35:41;;;;;;;;;;;11.70;99.90;;;;;;5105026;28;20211;-72
2022/10/12 00:38:08;;;;;;;;;;;11.70;99.90;;;;;;5105676;28;19960;-71
2022/10/12 00:40:34;;;;;;;;;;;11.70;99.90;;;;;;5105620;28;20230;-72
2022/10/12 00:43:02;;;;;;;;;;;11.70;99.90;;;;;;5105781;28;19926;-72
2022/10/12 00:45:29;;;;;;;;;;;11.70;99.90;;;;;;5105492;28;19926;-71
2022/10/12 00:47:56;;;;;;;;;;;11.70;99.90;;;;;;5105257;28;19955;-71
2022/10/12 00:50:25;;;;;;;;;;;11.60;99.90;;;;;;5105668;28;19926;-71
2022/10/12 00:52:54;;;;;;;;;;;11.60;99.90;;;;;;5105650;28;19920;-72
2022/10/12 00:55:21;;;;;;;;;;;11.60;99.90;;;;;;5105343;28;19926;-71
2022/10/12 00:57:49;;;;;;;;;;;11.50;99.90;;;;;;5105444;28;19920;-71
2022/10/12 01:00:18;;;;;;;;;;;11.50;99.90;;;;;;5104844;28;19920;-71
2022/10/12 01:02:46;;;;;;;;;;;11.50;99.90;;;;;;5105071;28;19920;-71
2022/10/12 01:05:13;;;;;;;;;;;11.40;99.90;;;;;;5105109;28;19987;-70
2022/10/12 01:07:40;;;;;;;;;;;11.40;99.90;;;;;;5105325;28;19920;-71
2022/10/12 01:10:07;;;;;;;;;;;11.40;99.90;;;;;;5104545;28;19987;-71
2022/10/12 01:12:34;;;;;;;;;;;11.40;99.90;;;;;;5104978;28;19928;-71
2022/10/12 01:15:00;;;;;;;;;;;11.40;99.90;;;;;;5104942;28;19920;-71
2022/10/12 01:17:34;;;;;;;;;;;11.40;99.90;;;;;;5105527;28;19920;-71
2022/10/12 01:20:18;;;;;;;;;;;11.30;99.90;;;;;;5099875;28;19920;-71
2022/10/12 01:22:49;;;;;;;;;;;11.30;99.90;;;;;;5092799;28;19979;-71
2022/10/12 01:25:24;;;;;;;;;;;11.30;99.90;;;;;;5104748;28;19920;-71
2022/10/12 01:27:52;;;;;;;;;;;11.20;99.90;;;;;;5104591;28;19927;-71
2022/10/12 01:30:22;;;;;;;;;;;11.20;99.90;;;;;;5104568;28;20043;-71
2022/10/12 01:33:02;;;;;;;;;;;11.20;99.90;;;;;;5104879;28;19920;-71
2022/10/12 01:35:32;;;;;;;;;;;11.20;99.90;;;;;;5084251;28;19920;-72
2022/10/12 01:38:03;;;;;;;;;;;11.20;99.90;;;;;;5084477;28;19920;-71
2022/10/12 01:40:33;;;;;;;;;;;11.20;99.90;;;;;;5084261;28;19926;-71
2022/10/12 01:43:00;;;;;;;;;;;11.20;99.90;;;;;;5084356;28;19962;-71
2022/10/12 01:45:28;;;;;;;;;;;11.10;99.90;;;;;;5084066;28;20108;-71
2022/10/12 01:47:55;;;;;;;;;;;11.10;99.90;;;;;;5088223;28;19920;-71
2022/10/12 01:50:22;;;;;;;;;;;11.10;99.90;;;;;;5104508;28;19919;-70
2022/10/12 01:52:55;;;;;;;;;;;11.00;99.90;;;;;;5102997;28;19983;-71
2022/10/12 01:55:27;;;;;;;;;;;11.00;99.90;;;;;;5103538;28;19979;-71
2022/10/12 01:58:01;;;;;;;;;;;11.00;99.90;;;;;;5085271;28;20115;-71
2022/10/12 02:00:30;;;;;;;;;;;10.90;99.90;;;;;;5099859;28;19920;-71
2022/10/12 02:03:01;;;;;;;;;;;10.90;99.90;;;;;;5083775;28;19920;-71
2022/10/12 02:05:37;;;;;;;;;;;10.90;99.90;;;;;;5083920;28;20089;-71
2022/10/12 02:08:06;;;;;;;;;;;10.90;99.90;;;;;;5095766;28;19920;-70
2022/10/12 02:10:35;;;;;;;;;;;10.90;99.90;;;;;;5104147;28;19935;-72
2022/10/12 02:13:05;;;;;;;;;;;10.80;99.90;;;;;;5103864;28;19927;-72
2022/10/12 02:15:34;;;;;;;;;;;10.80;99.90;;;;;;5103929;28;19977;-71
2022/10/12 02:18:02;;;;;;;;;;;10.80;99.90;;;;;;5103856;28;19926;-71
2022/10/12 02:20:29;;;;;;;;;;;10.80;99.90;;;;;;5103843;28;19920;-72
2022/10/12 02:22:55;;;;;;;;;;;10.70;99.90;;;;;;5104148;28;19994;-71
2022/10/12 02:25:23;;;;;;;;;;;10.70;99.90;;;;;;5103796;28;19920;-71
2022/10/12 02:27:53;;;;;;;;;;;10.70;99.90;;;;;;5103606;28;20115;-71
2022/10/12 02:30:23;;;;;;;;;;;10.60;99.90;;;;;;5103473;28;19920;-71
2022/10/12 02:32:54;;;;;;;;;;;10.60;99.90;;;;;;5110521;28;19991;-72
2022/10/12 02:35:24;;;;;;;;;;;10.60;99.90;;;;;;5110447;28;19919;-72
2022/10/12 02:37:53;;;;;;;;;;;10.60;99.90;;;;;;5110269;28;19988;-72
2022/10/12 02:40:23;;;;;;;;;;;10.60;99.90;;;;;;5109996;28;19920;-72
2022/10/12 02:42:52;;;;;;;;;;;10.50;99.90;;;;;;5110765;28;19926;-72
2022/10/12 02:45:19;;;;;;;;;;;10.50;99.90;;;;;;5110073;28;20345;-71
2022/10/12 02:47:47;;;;;;;;;;;10.50;99.90;;;;;;5110591;28;19987;-71
2022/10/12 02:50:15;;;;;;;;;;;10.50;99.90;;;;;;5110328;28;20003;-71
2022/10/12 02:52:42;;;;;;;;;;;10.40;99.90;;;;;;5110289;28;19927;-71
2022/10/12 02:55:09;;;;;;;;;;;10.40;99.90;;;;;;5110329;28;19926;-71
2022/10/12 02:57:35;;;;;;;;;;;10.30;99.90;;;;;;5110534;28;19948;-71
2022/10/12 03:00:02;;;;;;;;;;;10.20;99.90;;;;;;5110688;28;19920;-71
2022/10/12 03:02:29;;;;;;;;;;;10.20;99.90;;;;;;5110165;28;19954;-72
2022/10/12 03:04:55;;;;;;;;;;;10.20;99.90;;;;;;5110155;28;19986;-72
2022/10/12 03:07:23;;;;;;;;;;;10.10;99.90;;;;;;5110324;28;20165;-71
2022/10/12 03:09:50;;;;;;;;;;;10.10;99.90;;;;;;5110122;28;19926;-71
2022/10/12 03:12:16;;;;;;;;;;;10.10;99.90;;;;;;5110052;28;19979;-71
2022/10/12 03:14:43;;;;;;;;;;;10.00;99.90;;;;;;5109922;28;19951;-72
2022/10/12 03:17:09;;;;;;;;;;;10.00;99.90;;;;;;5110267;28;19963;-71
2022/10/12 03:19:38;;;;;;;;;;;10.00;99.90;;;;;;5110260;28;19983;-73
2022/10/12 03:22:05;;;;;;;;;;;10.00;99.90;;;;;;5109855;28;19924;-71
2022/10/12 03:24:33;;;;;;;;;;;10.00;99.90;;;;;;5110084;28;19983;-72
2022/10/12 03:26:59;;;;;;;;;;;9.90;99.90;;;;;;5109959;28;19924;-71
2022/10/12 03:29:26;;;;;;;;;;;9.90;99.90;;;;;;5109920;28;19920;-72
2022/10/12 03:31:52;;;;;;;;;;;9.90;99.90;;;;;;5110214;28;19920;-71
2022/10/12 03:34:19;;;;;;;;;;;9.80;99.90;;;;;;5110186;28;19920;-71
2022/10/12 03:36:46;;;;;;;;;;;9.80;99.90;;;;;;5109848;28;19987;-71
2022/10/12 03:39:12;;;;;;;;;;;9.80;99.90;;;;;;5109855;28;20131;-71
2022/10/12 03:41:42;;;;;;;;;;;9.70;99.90;;;;;;5109359;28;19954;-72
2022/10/12 03:44:09;;;;;;;;;;;9.70;99.90;;;;;;5106366;28;19934;-71
2022/10/12 03:46:36;;;;;;;;;;;9.60;99.90;;;;;;5106615;28;19983;-71
2022/10/12 03:49:02;;;;;;;;;;;9.50;99.90;;;;;;5106877;28;19930;-71
2022/10/12 03:51:29;;;;;;;;;;;9.50;99.90;;;;;;5106730;28;20151;-71
2022/10/12 03:53:55;;;;;;;;;;;9.40;99.90;;;;;;5106810;28;19922;-71
2022/10/12 03:56:22;;;;;;;;;;;9.40;99.90;;;;;;5105676;28;19920;-72
2022/10/12 03:58:50;;;;;;;;;;;9.40;99.90;;;;;;5106454;28;19963;-71
2022/10/12 04:01:16;;;;;;;;;;;9.30;99.90;;;;;;5091064;28;20085;-71
2022/10/12 04:03:43;;;;;;;;;;;9.30;99.90;;;;;;5097549;28;19927;-71
2022/10/12 04:06:10;;;;;;;;;;;9.20;99.90;;;;;;5105958;28;19920;-71
2022/10/12 04:08:36;;;;;;;;;;;9.20;99.90;;;;;;5106518;28;19956;-72
2022/10/12 04:11:03;;;;;;;;;;;9.20;99.90;;;;;;5106422;28;20182;-71
2022/10/12 04:13:29;;;;;;;;;;;9.20;99.90;;;;;;5106461;28;19991;-71
2022/10/12 04:16:02;;;;;;;;;;;9.20;99.90;;;;;;5105928;28;19924;-72
2022/10/12 04:18:29;;;;;;;;;;;9.20;99.90;;;;;;5106237;28;20088;-71
2022/10/12 04:20:56;;;;;;;;;;;9.20;99.90;;;;;;5106358;28;19958;-71
2022/10/12 04:23:22;;;;;;;;;;;9.20;99.90;;;;;;5106391;28;19988;-70
2022/10/12 04:25:49;;;;;;;;;;;9.20;99.90;;;;;;5105667;28;19926;-71
2022/10/12 04:28:16;;;;;;;;;;;9.20;99.90;;;;;;5105836;28;20266;-71
2022/10/12 04:30:42;;;;;;;;;;;9.20;99.90;;;;;;5105717;28;19967;-72
2022/10/12 04:33:10;;;;;;;;;;;9.20;99.90;;;;;;5106030;28;19991;-71
2022/10/12 04:35:37;;;;;;;;;;;9.20;99.90;;;;;;5105360;28;20204;-71
2022/10/12 04:38:03;;;;;;;;;;;9.20;99.90;;;;;;5105633;28;19992;-71
2022/10/12 04:40:36;;;;;;;;;;;9.30;99.90;;;;;;5105233;28;19983;-72
2022/10/12 04:43:03;;;;;;;;;;;9.20;99.90;;;;;;5105969;28;19920;-72
2022/10/12 04:45:30;;;;;;;;;;;9.30;99.90;;;;;;5105576;28;19962;-71
2022/10/12 04:47:56;;;;;;;;;;;9.30;99.90;;;;;;5085170;28;20267;-72
2022/10/12 04:50:24;;;;;;;;;;;9.30;99.90;;;;;;5085140;28;19995;-71
2022/10/12 04:52:51;;;;;;;;;;;9.30;99.90;;;;;;5095434;28;19926;-72
2022/10/12 04:55:18;;;;;;;;;;;9.30;99.90;;;;;;5104270;28;19927;-71
2022/10/12 04:57:44;;;;;;;;;;;9.30;99.90;;;;;;5105197;28;20096;-72
2022/10/12 05:00:11;;;;;;;;;;;9.30;99.90;;;;;;5105605;28;19959;-71
2022/10/12 05:02:38;;;;;;;;;;;9.30;99.90;;;;;;5105194;28;19988;-73
2022/10/12 05:05:05;;;;;;;;;;;9.30;99.90;;;;;;5105233;28;19988;-73
2022/10/12 05:07:33;;;;;;;;;;;9.30;99.90;;;;;;5104985;28;19946;-73
2022/10/12 05:09:59;;;;;;;;;;;9.40;99.90;;;;;;5105741;28;19920;-72
2022/10/12 05:12:26;;;;;;;;;;;9.30;99.90;;;;;;5104822;28;19987;-73
2022/10/12 05:14:52;;;;;;;;;;;9.30;99.90;;;;;;5104652;28;19959;-75
2022/10/12 05:17:19;;;;;;;;;;;9.40;99.90;;;;;;5104955;28;19954;-71
2022/10/12 05:19:46;;;;;;;;;;;9.40;99.90;;;;;;5104935;28;19958;-71
2022/10/12 05:22:12;;;;;;;;;;;9.40;99.90;;;;;;5104535;28;19999;-71
2022/10/12 05:24:40;;;;;;;;;;;9.40;99.90;;;;;;5104639;28;19987;-74
2022/10/12 05:27:07;;;;;;;;;;;9.40;99.90;;;;;;5104430;28;19920;-74
2022/10/12 05:29:33;;;;;;;;;;;9.40;99.90;;;;;;5104729;28;19995;-74
2022/10/12 05:32:00;;;;;;;;;;;9.40;99.90;;;;;;5104676;28;19920;-72
2022/10/12 05:34:27;;;;;;;;;;;9.50;99.90;;;;;;5104297;28;19951;-73
2022/10/12 05:36:54;;;;;;;;;;;9.50;99.90;;;;;;5103230;28;19938;-73
2022/10/12 05:39:20;;;;;;;;;;;9.50;99.90;;;;;;5104475;28;19963;-72
2022/10/12 05:41:50;;;;;;;;;;;9.50;99.90;;;;;;5104336;28;20003;-73
2022/10/12 05:44:16;;;;;;;;;;;9.50;99.90;;;;;;5104568;28;19920;-74
2022/10/12 05:46:43;;;;;;;;;;;9.50;99.90;;;;;;5103897;28;19983;-74
2022/10/12 05:49:09;;;;;;;;;;;9.50;99.90;;;;;;5095075;28;19920;-74
2022/10/12 05:51:37;;;;;;;;;;;9.60;99.90;;;;;;5104118;28;19942;-74
2022/10/12 05:54:04;;;;;;;;;;;9.60;99.90;;;;;;5104314;28;19948;-74
2022/10/12 05:56:31;;;;;;;;;;;9.60;99.90;;;;;;5104038;28;20299;-74
2022/10/12 05:58:59;;;;;;;;;;;9.60;99.90;;;;;;5104287;28;19920;-74
2022/10/12 06:01:25;;;;;;;;;;;9.60;99.90;;;;;;5103837;28;19920;-74
2022/10/12 06:03:53;;;;;;;;;;;9.50;99.90;;;;;;5104209;28;19987;-74
2022/10/12 06:06:20;;;;;;;;;;;9.60;99.90;;;;;;5103232;28;19924;-74
2022/10/12 06:08:46;;;;;;;;;;;9.60;99.90;;;;;;5104122;28;19986;-74
2022/10/12 06:11:13;;;;;;;;;;;9.60;99.90;;;;;;5104245;28;20351;-74
2022/10/12 06:13:40;;;;;;;;;;;9.60;99.90;;;;;;5104194;28;20096;-74
2022/10/12 06:16:08;;;;;;;;;;;9.60;99.90;;;;;;5104075;28;20267;-75
2022/10/12 06:18:35;;;;;;;;;;;9.60;99.90;;;;;;5103834;28;20179;-74
2022/10/12 06:21:01;;;;;;;;;;;9.60;99.90;;;;;;5103885;28;19991;-74
2022/10/12 06:23:28;;;;;;;;;;;9.70;99.90;;;;;;5103663;28;20183;-74
2022/10/12 06:25:54;;;;;;;;;;;9.70;99.90;;;;;;5103295;28;19987;-72
2022/10/12 06:28:21;;;;;;;;;;;9.70;99.90;;;;;;5102503;28;20203;-72
2022/10/12 06:30:52;;;;;;;;;;;9.70;99.90;;;;;;5100271;28;19920;-74
2022/10/12 06:33:20;;;;;;;;;;;9.70;99.90;;;;;;5102193;28;19928;-73
2022/10/12 06:35:47;;;;;;;;;;;9.60;99.90;;;;;;5102204;28;20215;-73
2022/10/12 06:38:14;;;;;;;;;;;9.60;99.90;;;;;;5103570;28;19920;-73
2022/10/12 06:40:40;;;;;;;;;;;9.60;99.90;;;;;;5089428;28;20171;-73
2022/10/12 06:43:07;;;;;;;;;;;9.70;99.90;;;;;;5083089;28;19920;-73
2022/10/12 06:45:34;;;;;;;;;;;9.70;99.90;;;;;;5085829;28;19932;-73
2022/10/12 06:48:00;;;;;;;;;;;9.70;99.90;;;;;;5102375;28;19926;-69
2022/10/12 06:50:28;;;;;;;;;;;9.70;99.90;;;;;;5102301;28;19926;-72
2022/10/12 06:52:55;;;;;;;;;;;9.70;99.90;;;;;;5102767;28;19926;-72
2022/10/12 06:55:21;;;;;;;;;;;9.80;99.90;;;;;;5102695;28;19987;-72
2022/10/12 06:57:48;;;;;;;;;;;9.80;99.90;;;;;;5102773;28;19983;-72
2022/10/12 07:00:15;;;;;;;;;;;9.80;99.90;;;;;;5103352;28;19983;-72
2022/10/12 07:02:42;;;;;;;;;;;9.80;99.90;;;;;;5102642;28;19942;-72
2022/10/12 07:05:08;;;;;;;;;;;9.80;99.90;;;;;;5098077;28;19995;-72
2022/10/12 07:07:37;;;;;;;;;;;9.80;99.90;;;;;;5082813;28;19921;-74
2022/10/12 07:10:04;;;;;;;;;;;9.90;99.90;;;;;;5102520;28;19920;-72
2022/10/12 07:12:30;;;;;;;;;;;9.80;99.90;;;;;;5102314;28;19939;-72
2022/10/12 07:14:58;;;;;;;;;;;9.90;99.90;;;;;;5101848;28;20254;-72
2022/10/12 07:17:24;;;;;;;;;;;9.90;99.90;;;;;;5102225;28;19966;-72
2022/10/12 07:19:51;;;;;;;;;;;9.90;99.90;;;;;;5106452;28;19988;-72
2022/10/12 07:22:18;;;;;;;;;;;9.90;99.90;;;;;;5106214;28;19983;-72
2022/10/12 07:24:45;;;;;;;;;;;9.90;99.90;;;;;;5106325;28;19963;-72
2022/10/12 07:27:12;;;;;;;;;;;10.00;99.90;;;;;;5107263;28;19983;-72
2022/10/12 07:29:39;;;;;;;;;;;10.00;99.90;;;;;;5109350;28;20070;-72
2022/10/12 07:32:06;;;;;;;;;;;10.10;99.90;;;;;;5109569;28;19992;-71
2022/10/12 07:34:33;;;;;;;;;;;10.10;99.90;;;;;;5110626;28;19920;-72
2022/10/12 07:36:59;;;;;;;;;;;10.10;99.90;;;;;;5105270;28;19925;-71
2022/10/12 07:39:26;;;;;;;;;;;10.20;99.90;;;;;;5105874;28;20123;-72
2022/10/12 07:41:54;;;;;;;;;;;10.20;99.90;;;;;;5106335;28;19963;-71
2022/10/12 07:44:23;;;;;;;;;;;10.30;99.90;;;;;;5106078;28;19952;-72
2022/10/12 07:46:49;;;;;;;;;;;10.40;99.90;;;;;;5106069;28;19927;-71
2022/10/12 07:49:16;;;;;;;;;;;10.50;99.90;;;;;;5106344;28;19920;-72
2022/10/12 07:51:43;;;;;;;;;;;10.50;99.90;;;;;;5106321;28;19991;-72
2022/10/12 07:54:09;;;;;;;;;;;10.60;99.90;;;;;;5105090;28;20261;-72
2022/10/12 07:56:36;;;;;;;;;;;10.60;99.90;;;;;;5106275;28;19927;-72
2022/10/12 07:59:04;;;;;;;;;;;10.60;99.90;;;;;;5104568;28;19947;-72
2022/10/12 08:01:31;;;;;;;;;;;10.70;99.90;;;;;;5094965;28;20227;-72
2022/10/12 08:04:00;;;;;;;;;;;10.70;99.90;;;;;;5102269;28;19928;-72
2022/10/12 08:06:28;;;;;;;;;;;10.80;99.90;;;;;;5092116;28;19926;-73
2022/10/12 08:08:55;;;;;;;;;;;10.90;99.90;;;;;;5085593;28;19929;-71
2022/10/12 08:11:22;;;;;;;;;;;10.90;99.90;;;;;;5085720;28;20259;-73
2022/10/12 08:13:48;;;;;;;;;;;11.00;99.90;;;;;;5097020;28;19926;-72
2022/10/12 08:16:18;;;;;;;;;;;11.00;99.90;;;;;;5104424;28;20275;-73
2022/10/12 08:18:44;;;;;;;;;;;11.10;99.90;;;;;;5105416;28;19920;-72
2022/10/12 08:21:12;;;;;;;;;;;11.10;99.90;;;;;;5100337;28;19927;-72
2022/10/12 08:23:39;;;;;;;;;;;11.10;99.90;;;;;;5085419;28;20070;-72
2022/10/12 08:26:06;;;;;;;;;;;11.20;99.90;;;;;;5085081;28;19956;-72
2022/10/12 08:28:32;;;;;;;;;;;11.20;99.90;;;;;;5085859;28;19927;-72
2022/10/12 08:30:59;;;;;;;;;;;11.30;99.90;;;;;;5104797;28;19991;-71
2022/10/12 08:33:29;;;;;;;;;;;11.30;99.90;;;;;;5105441;28;19920;-73
2022/10/12 08:35:56;;;;;;;;;;;11.40;99.90;;;;;;5104868;28;19934;-72
2022/10/12 08:38:22;;;;;;;;;;;11.50;99.90;;;;;;5098942;28;19983;-73
2022/10/12 08:40:51;;;;;;;;;;;11.50;99.90;;;;;;5102469;28;20254;-72
2022/10/12 08:43:24;;;;;;;;;;;11.60;99.90;;;;;;5105219;28;19988;-73
2022/10/12 08:45:53;;;;;;;;;;;11.60;99.90;;;;;;5094296;28;19955;-73
2022/10/12 08:48:21;;;;;;;;;;;11.60;99.90;;;;;;5104727;28;19982;-72
2022/10/12 08:50:50;;;;;;;;;;;11.70;99.90;;;;;;5105184;28;20095;-72
2022/10/12 08:53:21;;;;;;;;;;;11.70;99.90;;;;;;5104880;28;19919;-73
2022/10/12 08:55:48;;;;;;;;;;;11.70;99.90;;;;;;5103084;28;19966;-72
2022/10/12 08:58:17;;;;;;;;;;;11.80;99.90;;;;;;5105044;28;19920;-73
2022/10/12 09:00:46;;;;;;;;;;;11.80;99.90;;;;;;5104563;28;19926;-73
2022/10/12 09:03:14;;;;;;;;;;;11.90;99.90;;;;;;5104857;28;19920;-73
2022/10/12 09:05:43;;;;;;;;;;;11.90;99.90;;;;;;5096462;28;20084;-73
2022/10/12 09:08:14;;;;;;;;;;;11.90;99.90;;;;;;5104597;28;19919;-73
2022/10/12 09:10:45;;;;;;;;;;;11.90;99.90;;;;;;5104061;28;20234;-73
2022/10/12 09:13:18;;;;;;;;;;;11.90;99.90;;;;;;5104038;28;20175;-72
2022/10/12 09:15:47;;;;;;;;;;;11.90;99.90;;;;;;5103472;28;19951;-73
2022/10/12 09:18:16;;;;;;;;;;;12.00;99.90;;;;;;5104320;28;19920;-73
2022/10/12 09:20:46;;;;;;;;;;;11.90;99.90;;;;;;5104700;28;19920;-73
2022/10/12 09:23:22;;;;;;;;;;;12.00;99.90;;;;;;5103979;28;20130;-72
2022/10/12 09:25:49;;;;;;;;;;;12.00;99.90;;;;;;5103956;28;19919;-72
2022/10/12 09:28:18;;;;;;;;;;;12.00;99.90;;;;;;5103917;28;19983;-73
2022/10/12 09:30:50;;;;;;;;;;;12.00;99.90;;;;;;5104347;28;19958;-72
2022/10/12 09:33:21;;;;;;;;;;;12.10;99.90;;;;;;5104131;28;19963;-72
2022/10/12 09:35:49;;;;;;;;;;;12.10;99.90;;;;;;5103729;28;19926;-73
2022/10/12 09:38:18;;;;;;;;;;;12.10;99.90;;;;;;5103855;28;19927;-73
2022/10/12 09:40:44;;;;;;;;;;;12.10;99.90;;;;;;5103582;28;19920;-73
2022/10/12 09:43:11;;;;;;;;;;;12.10;99.90;;;;;;5103634;28;19920;-73
2022/10/12 09:45:38;;;;;;;;;;;12.10;99.90;;;;;;5103764;28;19927;-72
2022/10/12 09:48:09;;;;;;;;;;;12.20;99.90;;;;;;5103525;28;19928;-73
2022/10/12 09:50:38;;;;;;;;;;;12.20;99.90;;;;;;5102143;28;19920;-72
2022/10/12 09:53:11;;;;;;;;;;;12.40;99.90;;;;;;5102333;28;20179;-73
2022/10/12 09:55:39;;;;;;;;;;;12.40;99.90;;;;;;5102746;28;19920;-73
2022/10/12 09:58:17;;;;;;;;;;;12.40;99.90;;;;;;5102862;28;19920;-73
2022/10/12 10:00:44;;;;;;;;;;;12.50;99.90;;;;;;5099242;28;19958;-73
2022/10/12 10:03:22;;;;;;;;;;;12.60;99.90;;;;;;5103055;28;19979;-73
2022/10/12 10:06:01;;;;;;;;;;;12.60;99.90;;;;;;5102083;28;19979;-73
2022/10/12 10:08:28;;;;;;;;;;;12.70;99.90;;;;;;5100057;28;20042;-72
2022/10/12 10:10:56;;;;;;;;;;;12.80;99.90;;;;;;5103368;28;20006;-73
2022/10/12 10:13:24;;;;;;;;;;;12.80;99.90;;;;;;5103609;28;20115;-73
2022/10/12 10:15:52;;;;;;;;;;;12.90;99.90;;;;;;5103194;28;19947;-73
2022/10/12 10:18:21;;;;;;;;;;;12.90;99.90;;;;;;5087673;28;19924;-73
2022/10/12 10:20:51;;;;;;;;;;;13.00;99.90;;;;;;5086646;28;19956;-72
2022/10/12 10:23:23;;;;;;;;;;;13.00;99.90;;;;;;5103575;28;19979;-75
2022/10/12 10:25:56;;;;;;;;;;;13.00;99.90;;;;;;5088151;28;19924;-73
2022/10/12 10:28:23;;;;;;;;;;;13.00;99.90;;;;;;5102820;28;19927;-73
2022/10/12 10:30:57;;;;;;;;;;;13.00;99.90;;;;;;5103395;28;19926;-74
2022/10/12 10:33:24;;;;;;;;;;;13.10;99.90;;;;;;5103860;28;20115;-74
2022/10/12 10:35:55;;;;;;;;;;;13.20;99.90;;;;;;5083533;28;19988;-73
2022/10/12 10:38:21;;;;;;;;;;;13.10;99.90;;;;;;5093980;28;19986;-74
2022/10/12 10:40:50;;;;;;;;;;;13.20;99.90;;;;;;5103127;28;19920;-73
2022/10/12 10:43:20;;;;;;;;;;;13.20;99.90;;;;;;5103062;28;19927;-74
2022/10/12 10:45:49;;;;;;;;;;;13.20;99.90;;;;;;5101238;28;19955;-74
2022/10/12 10:48:18;;;;;;;;;;;13.30;99.90;;;;;;5102093;28;19920;-74
2022/10/12 10:50:50;;;;;;;;;;;13.20;99.90;;;;;;5103149;28;20176;-74
2022/10/12 10:53:18;;;;;;;;;;;13.30;99.90;;;;;;5105291;28;20123;-74
2022/10/12 10:55:47;;;;;;;;;;;13.30;99.90;;;;;;5107157;28;19920;-73
2022/10/12 10:58:24;;;;;;;;;;;13.30;99.90;;;;;;5107322;28;20118;-74
2022/10/12 11:00:52;;;;;;;;;;;13.30;99.90;;;;;;5106667;28;19927;-74
2022/10/12 11:03:21;;;;;;;;;;;13.30;99.90;;;;;;5107897;28;19926;-76
2022/10/12 11:05:51;;;;;;;;;;;13.40;99.90;;;;;;5101329;28;19926;-74
2022/10/12 11:08:20;;;;;;;;;;;13.40;99.90;;;;;;5092953;28;19987;-74
2022/10/12 11:10:48;;;;;;;;;;;13.40;99.90;;;;;;5107826;28;19920;-74
2022/10/12 11:13:18;;;;;;;;;;;13.50;99.90;;;;;;5107034;28;19967;-74
2022/10/12 11:15:48;;;;;;;;;;;13.50;99.90;;;;;;5106425;28;19994;-74
2022/10/12 11:18:17;;;;;;;;;;;13.50;99.90;;;;;;5106430;28;19994;-74
2022/10/12 11:20:46;;;;;;;;;;;13.50;99.90;;;;;;5107576;28;19979;-74
2022/10/12 11:23:30;;;;;;;;;;;13.50;99.90;;;;;;5108670;28;19935;-74
2022/10/12 11:26:04;;;;;;;;;;;13.50;99.90;;;;;;5107938;28;19920;-74
2022/10/12 11:28:32;;;;;;;;;;;13.60;99.90;;;;;;5108056;28;19958;-74
2022/10/12 11:31:01;;;;;;;;;;;13.60;99.90;;;;;;5108307;28;19934;-75
2022/10/12 11:33:34;;;;;;;;;;;13.60;99.90;;;;;;5108172;28;19920;-72
2022/10/12 11:36:01;;;;;;;;;;;13.50;99.90;;;;;;5105514;28;20172;-71
2022/10/12 11:38:30;;;;;;;;;;;13.60;99.90;;;;;;5105446;28;20100;-74
2022/10/12 11:41:00;;;;;;;;;;;13.60;99.90;;;;;;5106813;28;19999;-73
2022/10/12 11:43:31;;;;;;;;;;;13.70;99.90;;;;;;5105923;28;19928;-75
2022/10/12 11:46:01;;;;;;;;;;;13.70;99.90;;;;;;5105964;28;19987;-74
2022/10/12 11:48:31;;;;;;;;;;;13.70;99.90;;;;;;5106444;28;19970;-75
2022/10/12 11:50:58;;;;;;;;;;;13.60;99.90;;;;;;5106382;28;19920;-74
2022/10/12 11:53:28;;;;;;;;;;;13.70;99.90;;;;;;5105796;28;20283;-76
2022/10/12 11:56:01;;;;;;;;;;;13.60;99.90;;;;;;5105995;28;19942;-75
2022/10/12 11:58:29;;;;;;;;;;;13.70;99.90;;;;;;5103765;28;20234;-75
2022/10/12 12:01:03;;;;;;;;;;;13.70;99.90;;;;;;5104466;28;20228;-76
2022/10/12 12:03:34;;;;;;;;;;;13.70;99.90;;;;;;5105352;28;19927;-75
2022/10/12 12:06:16;;;;;;;;;;;13.80;99.90;;;;;;5104866;28;19920;-74
2022/10/12 12:08:59;;;;;;;;;;;13.80;99.90;;;;;;5105155;28;19920;-75
2022/10/12 12:11:27;;;;;;;;;;;13.80;99.90;;;;;;5105819;28;19983;-77
2022/10/12 12:14:26;;;;;;;;;;;13.80;99.90;;;;;;5105872;28;19919;-75
2022/10/12 12:17:09;;;;;;;;;;;13.80;99.90;;;;;;5105003;28;19920;-76
2022/10/12 12:19:37;;;;;;;;;;;13.80;99.90;;;;;;5105692;28;19979;-73
2022/10/12 12:22:15;;;;;;;;;;;13.80;99.90;;;;;;5105810;28;19924;-74
2022/10/12 12:24:51;;;;;;;;;;;13.80;99.90;;;;;;5102734;28;19926;-74
2022/10/12 12:27:21;;;;;;;;;;;13.90;99.90;;;;;;5105587;28;20246;-74
2022/10/12 12:29:50;;;;;;;;;;;13.80;99.90;;;;;;5104568;28;20282;-75
2022/10/12 12:32:18;;;;;;;;;;;13.90;99.90;;;;;;5105144;28;19926;-76
2022/10/12 12:34:50;;;;;;;;;;;13.80;99.90;;;;;;5104584;28;19928;-75
2022/10/12 12:37:20;;;;;;;;;;;13.90;99.90;;;;;;5105254;28;19995;-75
2022/10/12 12:39:51;;;;;;;;;;;13.90;99.90;;;;;;5104440;28;19920;-75
2022/10/12 12:42:21;;;;;;;;;;;13.90;99.90;;;;;;5105012;28;19920;-76
2022/10/12 12:44:48;;;;;;;;;;;14.00;99.90;;;;;;5104336;28;19920;-76
2022/10/12 12:47:16;;;;;;;;;;;14.00;99.90;;;;;;5104853;28;19920;-75
2022/10/12 12:49:45;;;;;;;;;;;14.00;99.90;;;;;;5105050;28;19920;-73
2022/10/12 12:52:14;;;;;;;;;;;14.00;99.90;;;;;;5107587;28;19999;-74
2022/10/12 12:54:45;;;;;;;;;;;14.10;99.90;;;;;;5104705;28;19920;-74
2022/10/12 12:57:26;;;;;;;;;;;14.10;99.90;;;;;;5104339;28;20119;-74
2022/10/12 13:00:08;;;;;;;;;;;14.10;99.90;;;;;;5101383;28;19991;-75
2022/10/12 13:03:06;;;;;;;;;;;14.10;99.90;;;;;;5099898;28;19928;-74
2022/10/12 13:05:48;;;;;;;;;;;14.10;99.90;;;;;;5022315;28;19921;-74
2022/10/12 13:08:22;;;;;;;;;;;14.20;99.90;;;;;;5091507;28;19926;-77
2022/10/12 13:10:54;;;;;;;;;;;14.20;99.90;;;;;;5104392;28;19919;-75
2022/10/12 13:13:43;;;;;;;;;;;14.20;99.90;;;;;;5103238;28;19920;-74
2022/10/12 13:16:18;;;;;;;;;;;14.30;99.90;;;;;;5099860;28;20224;-75
2022/10/12 13:18:47;;;;;;;;;;;14.30;99.90;;;;;;5100866;28;19927;-71
2022/10/12 13:21:16;;;;;;;;;;;14.30;99.90;;;;;;5095102;28;19935;-71
2022/10/12 13:23:45;;;;;;;;;;;14.30;99.90;;;;;;5099977;28;20226;-72
2022/10/12 13:26:14;;;;;;;;;;;14.40;99.90;;;;;;5101741;28;20227;-72
2022/10/12 13:28:42;;;;;;;;;;;14.40;99.90;;;;;;5101958;28;19927;-74
2022/10/12 13:31:13;;;;;;;;;;;14.40;99.90;;;;;;5104339;28;19943;-75
2022/10/12 13:33:44;;;;;;;;;;;14.50;99.90;;;;;;5104512;28;19979;-73
2022/10/12 13:36:17;;;;;;;;;;;14.50;99.90;;;;;;5105117;28;19952;-74
2022/10/12 13:38:45;;;;;;;;;;;14.50;99.90;;;;;;5108670;28;20165;-71
2022/10/12 13:41:12;;;;;;;;;;;14.40;99.90;;;;;;5098339;28;19926;-76
2022/10/12 13:43:43;;;;;;;;;;;14.40;99.90;;;;;;5097613;28;19962;-76
2022/10/12 13:46:11;;;;;;;;;;;14.40;99.90;;;;;;5102928;28;19935;-74
2022/10/12 13:48:37;;;;;;;;;;;14.40;99.90;;;;;;5103792;28;20107;-76
2022/10/12 13:51:05;;;;;;;;;;;14.30;99.90;;;;;;5102487;28;19979;-74
2022/10/12 13:53:34;;;;;;;;;;;14.40;99.90;;;;;;5104583;28;19920;-77
2022/10/12 13:56:04;;;;;;;;;;;14.40;99.90;;;;;;5104017;28;19951;-76
2022/10/12 13:58:32;;;;;;;;;;;14.40;99.90;;;;;;5103835;28;20278;-75
2022/10/12 14:00:59;;;;;;;;;;;14.40;99.90;;;;;;5104456;28;19928;-75
2022/10/12 14:03:27;;;;;;;;;;;14.40;99.90;;;;;;5103978;28;19920;-76
2022/10/12 14:05:53;;;;;;;;;;;14.50;99.90;;;;;;5101790;28;20243;-75
2022/10/12 14:08:24;;;;;;;;;;;14.50;99.90;;;;;;5103742;28;19920;-75
2022/10/12 14:10:50;;;;;;;;;;;14.50;99.90;;;;;;5103955;28;19966;-75
2022/10/12 14:13:22;;;;;;;;;;;14.50;99.90;;;;;;5103182;28;19951;-74
2022/10/12 14:15:49;;;;;;;;;;;14.50;99.90;;;;;;5095129;28;20271;-75
2022/10/12 14:18:34;;;;;;;;;;;14.60;99.90;;;;;;5103618;28;19955;-75
2022/10/12 14:21:05;;;;;;;;;;;14.60;99.90;;;;;;5103710;28;20092;-75
2022/10/12 14:23:31;;;;;;;;;;;14.60;99.90;;;;;;5103859;28;19932;-75
2022/10/12 14:25:58;;;;;;;;;;;14.60;99.90;;;;;;5103608;28;19920;-75
2022/10/12 14:28:28;;;;;;;;;;;14.60;99.90;;;;;;5103575;28;19926;-75
2022/10/12 14:30:55;;;;;;;;;;;14.60;99.90;;;;;;5103530;28;19958;-73